createdAt,value
2018-09-20T00:02:14.679Z,17.20
2018-09-20T00:04:42.990Z,17.20
2018-09-20T00:07:11.024Z,17.10
2018-09-20T00:09:44.155Z,17.10
2018-09-20T00:12:12.212Z,17.10
2018-09-20T00:14:46.760Z,17.10
2018-09-20T00:17:27.260Z,17.10
2018-09-20T00:19:55.331Z,17.00
2018-09-20T00:22:26.618Z,17.00
2018-09-20T00:24:56.926Z,17.00
2018-09-20T00:27:25.102Z,16.90
2018-09-20T00:29:57.356Z,16.90
2018-09-20T00:32:28.189Z,16.90
2018-09-20T00:34:56.323Z,16.90
2018-09-20T00:37:27.204Z,16.80
2018-09-20T00:39:55.283Z,16.80
2018-09-20T00:42:27.456Z,16.80
2018-09-20T00:44:57.776Z,16.80
2018-09-20T00:47:25.898Z,16.80
2018-09-20T00:50:00.112Z,16.80
2018-09-20T00:52:33.193Z,16.70
2018-09-20T00:55:01.205Z,16.70
2018-09-20T00:57:35.662Z,16.70
2018-09-20T01:00:10.164Z,16.70
2018-09-20T01:02:44.690Z,16.70
2018-09-20T01:05:16.898Z,16.70
2018-09-20T01:07:48.408Z,16.60
2018-09-20T01:10:19.236Z,16.60
2018-09-20T01:12:47.418Z,16.70
2018-09-20T01:15:23.580Z,16.60
2018-09-20T01:17:57.660Z,16.60
2018-09-20T01:20:25.763Z,16.50
2018-09-20T01:22:53.864Z,16.50
2018-09-20T01:25:22.028Z,16.50
2018-09-20T01:27:52.857Z,16.40
2018-09-20T01:30:21.066Z,16.40
2018-09-20T01:32:49.188Z,16.30
2018-09-20T01:35:22.423Z,16.30
2018-09-20T01:37:52.515Z,16.30
2018-09-20T01:40:20.548Z,16.20
2018-09-20T01:43:00.535Z,16.20
2018-09-20T01:45:28.567Z,16.10
2018-09-20T01:48:02.363Z,16.10
2018-09-20T01:50:30.571Z,16.00
2018-09-20T01:53:10.485Z,16.00
2018-09-20T01:55:38.824Z,16.00
2018-09-20T01:58:06.871Z,15.90
2018-09-20T02:00:37.985Z,15.90
2018-09-20T02:03:06.297Z,15.90
2018-09-20T02:05:34.536Z,15.80
2018-09-20T02:08:07.923Z,15.80
2018-09-20T02:10:40.002Z,15.80
2018-09-20T02:13:10.784Z,15.70
2018-09-20T02:15:47.093Z,15.70
2018-09-20T02:18:26.798Z,15.70
2018-09-20T02:21:03.325Z,15.70
2018-09-20T02:23:31.508Z,15.70
2018-09-20T02:26:02.933Z,15.70
2018-09-20T02:28:35.546Z,15.60
2018-09-20T02:31:08.552Z,15.70
2018-09-20T02:33:37.130Z,15.60
2018-09-20T02:36:08.351Z,15.60
2018-09-20T02:38:36.578Z,15.60
2018-09-20T02:41:13.918Z,15.60
2018-09-20T02:43:48.517Z,15.50
2018-09-20T02:48:54.139Z,15.50
2018-09-20T02:51:33.899Z,15.50
2018-09-20T02:54:02.024Z,15.50
2018-09-20T02:56:33.061Z,15.50
2018-09-20T02:59:01.187Z,15.50
2018-09-20T03:01:35.786Z,15.50
2018-09-20T03:04:03.836Z,15.40
2018-09-20T03:06:35.983Z,15.50
2018-09-20T03:09:08.826Z,15.50
2018-09-20T03:11:41.269Z,15.50
2018-09-20T03:14:15.602Z,15.50
2018-09-20T03:16:51.422Z,15.50
2018-09-20T03:19:22.567Z,15.50
2018-09-20T03:21:56.570Z,15.50
2018-09-20T03:24:24.791Z,15.50
2018-09-20T03:26:59.178Z,15.50
2018-09-20T03:29:33.702Z,15.50
2018-09-20T03:32:08.048Z,15.60
2018-09-20T03:34:41.909Z,15.60
2018-09-20T03:37:10.092Z,15.70
2018-09-20T03:39:44.715Z,15.70
2018-09-20T03:42:12.904Z,15.70
2018-09-20T03:44:43.800Z,15.70
2018-09-20T03:47:11.941Z,15.80
2018-09-20T03:49:46.423Z,15.80
2018-09-20T03:52:20.872Z,15.80
2018-09-20T03:54:57.693Z,15.80
2018-09-20T03:57:26.109Z,15.80
2018-09-20T03:59:54.179Z,15.80
2018-09-20T04:02:34.018Z,15.90
2018-09-20T04:05:02.075Z,15.90
2018-09-20T04:07:35.734Z,15.90
2018-09-20T04:10:06.071Z,16.00
2018-09-20T04:12:43.658Z,15.90
2018-09-20T04:15:11.936Z,16.00
2018-09-20T04:17:47.311Z,16.00
2018-09-20T04:20:21.796Z,16.00
2018-09-20T04:22:52.930Z,16.00
2018-09-20T04:25:23.127Z,15.90
2018-09-20T04:27:51.287Z,15.90
2018-09-20T04:30:24.366Z,15.90
2018-09-20T04:32:54.846Z,15.90
2018-09-20T04:35:41.093Z,15.80
2018-09-20T04:38:09.490Z,15.80
2018-09-20T04:40:37.594Z,15.80
2018-09-20T04:43:08.989Z,15.80
2018-09-20T04:45:39.975Z,15.80
2018-09-20T04:48:08.345Z,15.70
2018-09-20T04:50:36.546Z,15.70
2018-09-20T04:53:08.912Z,15.70
2018-09-20T04:55:38.852Z,15.70
2018-09-20T04:58:07.050Z,15.60
2018-09-20T05:00:37.201Z,15.70
2018-09-20T05:03:08.242Z,15.60
2018-09-20T05:05:36.263Z,15.60
2018-09-20T05:08:09.484Z,15.60
2018-09-20T05:10:37.526Z,15.60
2018-09-20T05:13:06.387Z,15.50
2018-09-20T05:15:36.458Z,15.60
2018-09-20T05:18:09.786Z,15.50
2018-09-20T05:20:44.978Z,15.60
2018-09-20T05:23:19.102Z,15.60
2018-09-20T05:25:47.148Z,15.50
2018-09-20T05:28:21.646Z,15.50
2018-09-20T05:30:54.637Z,15.60
2018-09-20T05:33:22.936Z,15.60
2018-09-20T05:35:50.952Z,15.60
2018-09-20T05:38:21.833Z,15.80
2018-09-20T05:40:49.968Z,15.80
2018-09-20T05:43:23.069Z,15.90
2018-09-20T05:45:53.600Z,15.90
2018-09-20T05:48:33.131Z,16.00
2018-09-20T05:51:11.354Z,16.00
2018-09-20T05:53:41.517Z,16.10
2018-09-20T05:56:09.590Z,16.10
2018-09-20T05:58:40.598Z,16.20
2018-09-20T06:01:08.679Z,16.20
2018-09-20T06:03:43.926Z,16.30
2018-09-20T06:06:17.243Z,16.30
2018-09-20T06:08:48.349Z,16.40
2018-09-20T06:11:16.550Z,16.50
2018-09-20T06:13:52.573Z,16.60
2018-09-20T06:16:22.904Z,16.60
2018-09-20T06:18:51.002Z,16.70
2018-09-20T06:21:22.031Z,16.80
2018-09-20T06:23:52.295Z,16.90
2018-09-20T06:26:20.335Z,17.00
2018-09-20T06:28:51.194Z,17.20
2018-09-20T06:31:19.238Z,17.20
2018-09-20T06:33:52.749Z,17.30
2018-09-20T06:36:27.302Z,17.40
2018-09-20T06:38:58.725Z,17.40
2018-09-20T06:41:31.198Z,17.50
2018-09-20T06:44:02.134Z,17.50
2018-09-20T06:46:30.218Z,17.60
2018-09-20T06:49:04.850Z,17.70
2018-09-20T06:51:35.533Z,17.80
2018-09-20T06:54:03.664Z,17.90
2018-09-20T06:59:11.475Z,18.20
2018-09-20T07:01:42.313Z,18.30
2018-09-20T07:04:10.358Z,18.50
2018-09-20T07:06:43.058Z,18.60
2018-09-20T07:09:17.448Z,18.80
2018-09-20T07:11:55.563Z,18.90
2018-09-20T07:14:28.601Z,19.10
2018-09-20T07:16:56.752Z,19.20
2018-09-20T07:19:39.399Z,19.50
2018-09-20T07:22:07.512Z,19.70
2018-09-20T07:24:41.790Z,19.90
2018-09-20T07:27:12.055Z,20.20
2018-09-20T07:29:40.115Z,20.50
2018-09-20T07:32:12.356Z,20.70
2018-09-20T07:34:52.297Z,21.00
2018-09-20T07:37:20.508Z,21.30
2018-09-20T07:42:28.271Z,21.70
2018-09-20T07:45:01.387Z,21.90
2018-09-20T07:47:32.426Z,22.00
2018-09-20T07:50:04.796Z,22.20
2018-09-20T07:52:38.648Z,22.40
2018-09-20T07:55:06.721Z,22.50
2018-09-20T07:57:39.628Z,22.70
2018-09-20T08:00:10.083Z,22.80
2018-09-20T08:02:38.433Z,22.90
2018-09-20T08:05:06.467Z,23.00
2018-09-20T08:07:37.401Z,23.10
2018-09-20T08:10:05.548Z,23.10
2018-09-20T08:12:40.300Z,23.30
2018-09-20T08:15:08.445Z,23.50
2018-09-20T08:17:41.649Z,23.80
2018-09-20T08:20:10.431Z,24.00
2018-09-20T08:22:50.642Z,24.20
2018-09-20T08:25:21.954Z,24.30
2018-09-20T08:27:52.166Z,24.40
2018-09-20T08:30:20.230Z,24.50
2018-09-20T08:32:53.706Z,24.70
2018-09-20T08:35:28.016Z,24.90
2018-09-20T08:38:04.928Z,25.00
2018-09-20T08:40:33.025Z,25.10
2018-09-20T08:43:08.661Z,25.10
2018-09-20T08:45:41.078Z,25.10
2018-09-20T08:48:15.044Z,25.10
2018-09-20T08:50:45.185Z,25.20
2018-09-20T08:53:13.218Z,25.40
2018-09-20T08:55:53.748Z,25.30
2018-09-20T08:58:29.163Z,25.30
2018-09-20T09:01:00.136Z,25.30
2018-09-20T09:03:28.270Z,25.50
2018-09-20T09:06:01.210Z,25.60
2018-09-20T09:08:29.547Z,25.70
2018-09-20T09:10:57.760Z,25.80
2018-09-20T09:13:35.057Z,25.80
2018-09-20T09:16:08.051Z,25.80
2018-09-20T09:18:36.322Z,25.90
2018-09-20T09:21:04.484Z,26.00
2018-09-20T09:23:35.363Z,26.10
2018-09-20T09:26:03.497Z,26.30
2018-09-20T09:28:35.422Z,26.30
2018-09-20T09:31:03.642Z,26.40
2018-09-20T09:33:34.589Z,26.40
2018-09-20T09:36:04.758Z,26.50
2018-09-20T09:38:32.796Z,26.60
2018-09-20T09:41:01.266Z,26.70
2018-09-20T09:43:36.008Z,26.70
2018-09-20T09:46:09.983Z,26.90
2018-09-20T09:48:41.305Z,26.90
2018-09-20T09:51:09.745Z,27.00
2018-09-20T09:53:37.830Z,27.10
2018-09-20T09:56:08.637Z,27.20
2018-09-20T09:58:36.747Z,27.00
2018-09-20T10:01:07.727Z,26.70
2018-09-20T10:03:35.846Z,26.70
2018-09-20T10:06:10.139Z,26.80
2018-09-20T10:08:46.084Z,27.00
2018-09-20T10:11:14.193Z,27.10
2018-09-20T10:13:47.426Z,27.10
2018-09-20T10:16:20.681Z,27.20
2018-09-20T10:18:49.144Z,27.40
2018-09-20T10:21:17.407Z,27.30
2018-09-20T10:23:45.543Z,27.40
2018-09-20T10:26:16.597Z,27.40
2018-09-20T10:28:45.032Z,27.50
2018-09-20T10:31:13.128Z,27.40
2018-09-20T10:33:49.512Z,27.40
2018-09-20T10:36:24.866Z,27.20
2018-09-20T10:39:06.648Z,27.00
2018-09-20T10:41:34.814Z,27.00
2018-09-20T10:44:12.352Z,27.00
2018-09-20T10:46:45.741Z,27.10
2018-09-20T10:49:20.937Z,27.20
2018-09-20T10:51:57.444Z,27.20
2018-09-20T10:54:32.622Z,27.30
2018-09-20T10:57:03.455Z,27.30
2018-09-20T10:59:38.832Z,27.30
2018-09-20T11:02:13.555Z,27.20
2018-09-20T11:04:41.640Z,27.20
2018-09-20T11:07:13.843Z,27.10
2018-09-20T11:09:42.026Z,27.10
2018-09-20T11:12:10.162Z,27.10
2018-09-20T11:14:41.419Z,27.20
2018-09-20T11:17:21.888Z,27.40
2018-09-20T11:19:54.149Z,27.40
2018-09-20T11:22:24.573Z,27.40
2018-09-20T11:24:52.774Z,27.50
2018-09-20T11:27:20.824Z,27.60
2018-09-20T11:30:00.714Z,27.80
2018-09-20T11:32:28.943Z,28.00
2018-09-20T11:35:03.569Z,27.90
2018-09-20T11:37:34.714Z,27.70
2018-09-20T11:40:05.799Z,27.60
2018-09-20T11:42:34.455Z,27.50
2018-09-20T11:45:04.541Z,27.50
2018-09-20T11:47:32.686Z,27.40
2018-09-20T11:50:03.838Z,27.40
2018-09-20T11:52:32.647Z,27.30
2018-09-20T11:55:03.487Z,27.40
2018-09-20T11:57:31.605Z,27.40
2018-09-20T12:00:05.959Z,27.40
2018-09-20T12:02:42.049Z,27.40
2018-09-20T12:05:10.127Z,27.40
2018-09-20T12:07:44.847Z,27.30
2018-09-20T12:10:12.919Z,27.30
2018-09-20T12:12:41.201Z,27.30
2018-09-20T12:15:11.337Z,27.40
2018-09-20T12:17:39.389Z,27.40
2018-09-20T12:20:11.623Z,27.50
2018-09-20T12:22:42.261Z,27.60
2018-09-20T12:25:14.613Z,27.60
2018-09-20T12:27:45.113Z,27.60
2018-09-20T12:30:17.019Z,27.50
2018-09-20T12:35:24.780Z,27.30
2018-09-20T12:38:04.782Z,27.20
2018-09-20T12:40:32.880Z,27.20
2018-09-20T12:43:10.528Z,27.20
2018-09-20T12:45:38.631Z,27.30
2018-09-20T12:48:09.621Z,27.20
2018-09-20T12:50:37.638Z,27.10
2018-09-20T12:53:38.434Z,27.10
2018-09-20T12:56:09.608Z,27.00
2018-09-20T12:58:42.953Z,27.10
2018-09-20T13:01:11.108Z,27.10
2018-09-20T13:03:42.254Z,27.20
2018-09-20T13:06:10.655Z,27.30
2018-09-20T13:08:39.469Z,27.40
2018-09-20T13:11:10.772Z,27.60
2018-09-20T13:13:40.272Z,27.70
2018-09-20T13:16:08.759Z,27.70
2018-09-20T13:18:37.364Z,27.60
2018-09-20T13:21:05.852Z,27.40
2018-09-20T13:23:37.009Z,27.40
2018-09-20T13:26:05.116Z,27.40
2018-09-20T13:28:36.197Z,27.30
2018-09-20T13:31:07.218Z,27.20
2018-09-20T13:33:39.529Z,27.20
2018-09-20T13:36:16.147Z,27.20
2018-09-20T13:38:48.547Z,27.10
2018-09-20T13:41:19.501Z,27.10
2018-09-20T13:43:48.304Z,27.00
2018-09-20T13:46:22.835Z,26.90
2018-09-20T13:48:57.042Z,26.90
2018-09-20T13:51:29.211Z,26.80
2018-09-20T13:53:57.561Z,26.70
2018-09-20T13:56:25.813Z,26.60
2018-09-20T13:59:00.344Z,26.50
2018-09-20T14:01:31.051Z,26.50
2018-09-20T14:03:59.152Z,26.40
2018-09-20T14:06:33.325Z,26.30
2018-09-20T14:09:08.930Z,26.30
2018-09-20T14:11:44.451Z,26.30
2018-09-20T14:14:15.824Z,26.40
2018-09-20T14:16:46.640Z,26.50
2018-09-20T14:19:14.733Z,26.50
2018-09-20T14:21:45.712Z,26.60
2018-09-20T14:24:13.928Z,26.60
2018-09-20T14:26:49.847Z,26.20
2018-09-20T14:29:18.146Z,26.50
2018-09-20T14:31:46.321Z,26.40
2018-09-20T14:34:17.347Z,26.50
2018-09-20T14:36:45.646Z,26.50
2018-09-20T14:39:13.668Z,26.60
2018-09-20T14:41:45.638Z,26.60
2018-09-20T14:44:13.788Z,26.60
2018-09-20T14:49:21.581Z,26.50
2018-09-20T14:51:52.603Z,26.50
2018-09-20T14:54:20.712Z,26.50
2018-09-20T14:56:50.996Z,26.40
2018-09-20T14:59:25.302Z,26.30
2018-09-20T15:01:55.516Z,26.40
2018-09-20T15:04:23.763Z,26.40
2018-09-20T15:06:54.583Z,26.40
2018-09-20T15:09:23.136Z,26.30
2018-09-20T15:11:53.246Z,26.30
2018-09-20T15:14:21.310Z,26.30
2018-09-20T15:16:54.350Z,26.20
2018-09-20T15:19:22.483Z,26.20
2018-09-20T15:21:57.082Z,26.10
2018-09-20T15:24:31.735Z,26.00
2018-09-20T15:26:59.923Z,26.00
2018-09-20T15:29:34.560Z,25.90
2018-09-20T15:32:02.578Z,25.90
2018-09-20T15:34:33.870Z,25.90
2018-09-20T15:37:03.984Z,25.90
2018-09-20T15:39:32.136Z,25.80
2018-09-20T15:42:03.042Z,25.80
2018-09-20T15:44:31.159Z,25.80
2018-09-20T15:47:13.920Z,25.70
2018-09-20T15:49:41.939Z,25.70
2018-09-20T15:52:10.087Z,25.60
2018-09-20T15:54:38.410Z,25.60
2018-09-20T15:57:06.523Z,25.60
2018-09-20T15:59:40.896Z,25.50
2018-09-20T16:02:15.512Z,25.40
2018-09-20T16:04:57.329Z,25.40
2018-09-20T16:07:25.463Z,25.30
2018-09-20T16:09:56.692Z,25.20
2018-09-20T16:12:31.265Z,25.20
2018-09-20T16:15:03.678Z,25.10
2018-09-20T16:17:34.671Z,25.00
2018-09-20T16:20:02.741Z,25.00
2018-09-20T16:22:35.719Z,25.00
2018-09-20T16:25:06.199Z,24.90
2018-09-20T16:27:36.668Z,24.90
2018-09-20T16:30:22.818Z,24.80
2018-09-20T16:33:18.298Z,24.70
2018-09-20T16:36:04.097Z,24.70
2018-09-20T16:38:40.260Z,24.60
2018-09-20T16:41:13.724Z,24.50
2018-09-20T16:43:46.848Z,24.50
2018-09-20T16:46:15.155Z,24.40
2018-09-20T16:48:43.248Z,24.30
2018-09-20T16:51:18.735Z,24.30
2018-09-20T16:53:56.310Z,24.20
2018-09-20T16:56:29.439Z,24.10
2018-09-20T16:59:01.672Z,24.00
2018-09-20T17:01:29.850Z,23.90
2018-09-20T17:03:57.887Z,23.80
2018-09-20T17:06:29.183Z,23.70
2018-09-20T17:08:59.358Z,23.60
2018-09-20T17:11:27.829Z,23.50
2018-09-20T17:13:56.510Z,23.40
2018-09-20T17:16:24.784Z,23.30
2018-09-20T17:18:52.905Z,23.20
2018-09-20T17:21:27.629Z,23.10
2018-09-20T17:23:58.571Z,23.00
2018-09-20T17:26:28.759Z,22.90
2018-09-20T17:28:56.862Z,22.80
2018-09-20T17:31:27.649Z,22.70
2018-09-20T17:33:55.943Z,22.50
2018-09-20T17:36:29.153Z,22.40
2018-09-20T17:39:06.840Z,22.20
2018-09-20T17:41:40.980Z,22.10
2018-09-20T17:44:13.241Z,22.00
2018-09-20T17:46:41.758Z,21.80
2018-09-20T17:49:11.742Z,21.60
2018-09-20T17:51:42.698Z,21.50
2018-09-20T17:54:16.296Z,21.40
2018-09-20T17:56:52.048Z,21.20
2018-09-20T17:59:27.272Z,21.10
2018-09-20T18:01:58.206Z,20.90
2018-09-20T18:04:26.324Z,20.80
2018-09-20T18:07:04.443Z,20.70
2018-09-20T18:09:34.616Z,20.50
2018-09-20T18:12:02.760Z,20.40
2018-09-20T18:14:37.179Z,20.30
2018-09-20T18:17:19.174Z,20.10
2018-09-20T18:19:47.476Z,20.00
2018-09-20T18:22:15.511Z,19.90
2018-09-20T18:24:46.760Z,19.90
2018-09-20T18:27:17.332Z,19.80
2018-09-20T18:29:55.360Z,19.70
2018-09-20T18:32:23.605Z,19.60
2018-09-20T18:34:54.827Z,19.50
2018-09-20T18:39:58.942Z,19.30
2018-09-20T18:42:30.061Z,19.20
2018-09-20T18:45:01.011Z,19.10
2018-09-20T18:47:33.579Z,19.00
2018-09-20T18:50:01.799Z,18.90
2018-09-20T18:52:41.664Z,18.90
2018-09-20T18:55:11.814Z,18.80
2018-09-20T18:57:45.678Z,18.70
2018-09-20T19:00:13.962Z,18.60
2018-09-20T19:02:42.314Z,18.50
2018-09-20T19:05:12.553Z,18.50
2018-09-20T19:07:45.675Z,18.40
2018-09-20T19:10:16.832Z,18.40
2018-09-20T19:12:45.020Z,18.30
2018-09-20T19:15:16.151Z,18.20
2018-09-20T19:17:44.293Z,18.10
2018-09-20T19:20:12.558Z,18.10
2018-09-20T19:22:52.472Z,18.00
2018-09-20T19:25:21.254Z,17.90
2018-09-20T19:27:52.332Z,17.90
2018-09-20T19:30:20.375Z,17.80
2018-09-20T19:32:54.962Z,17.80
2018-09-20T19:35:28.863Z,17.70
2018-09-20T19:37:59.644Z,17.70
2018-09-20T19:40:31.820Z,17.60
2018-09-20T19:43:02.862Z,17.60
2018-09-20T19:45:37.178Z,17.50
2018-09-20T19:48:10.676Z,17.50
2018-09-20T19:50:43.927Z,17.50
2018-09-20T19:53:14.833Z,17.40
2018-09-20T19:55:43.229Z,17.40
2018-09-20T19:58:11.449Z,17.40
2018-09-20T20:00:45.976Z,17.40
2018-09-20T20:03:19.287Z,17.40
2018-09-20T20:05:50.272Z,17.40
2018-09-20T20:08:18.370Z,17.40
2018-09-20T20:10:49.740Z,17.40
2018-09-20T20:13:19.857Z,17.50
2018-09-20T20:15:47.996Z,17.50
2018-09-20T20:18:20.310Z,17.50
2018-09-20T20:20:53.316Z,17.60
2018-09-20T20:23:21.667Z,17.50
2018-09-20T20:25:49.721Z,17.50
2018-09-20T20:28:25.409Z,17.50
2018-09-20T20:30:53.750Z,17.50
2018-09-20T20:33:28.512Z,17.60
2018-09-20T20:35:56.556Z,17.50
2018-09-20T20:38:27.561Z,17.70
2018-09-20T20:40:55.761Z,17.70
2018-09-20T20:43:35.508Z,17.80
2018-09-20T20:46:03.687Z,17.80
2018-09-20T20:48:41.330Z,17.80
2018-09-20T20:51:09.845Z,17.80
2018-09-20T20:53:38.160Z,17.80
2018-09-20T20:56:06.230Z,17.80
2018-09-20T20:58:40.750Z,17.80
2018-09-20T21:01:19.428Z,17.80
2018-09-20T21:03:48.402Z,17.80
2018-09-20T21:06:31.796Z,17.80
2018-09-20T21:09:08.155Z,17.70
2018-09-20T21:14:15.352Z,17.70
2018-09-20T21:16:49.832Z,17.70
2018-09-20T21:19:20.843Z,17.70
2018-09-20T21:21:48.975Z,17.60
2018-09-20T21:24:19.670Z,17.60
2018-09-20T21:26:47.816Z,17.60
2018-09-20T21:29:24.289Z,17.50
2018-09-20T21:31:59.600Z,17.50
2018-09-20T21:34:34.963Z,17.50
2018-09-20T21:37:08.107Z,17.50
2018-09-20T21:39:39.331Z,17.50
2018-09-20T21:42:07.470Z,17.40
2018-09-20T21:44:39.738Z,17.40
2018-09-20T21:47:13.535Z,17.40
2018-09-20T21:49:56.022Z,17.30
2018-09-20T21:52:24.163Z,17.20
2018-09-20T21:54:59.640Z,17.10
2018-09-20T21:57:39.525Z,17.00
2018-09-20T22:00:07.989Z,17.00
2018-09-20T22:02:43.712Z,16.90
2018-09-20T22:05:23.695Z,16.80
2018-09-20T22:07:51.815Z,16.80
2018-09-20T22:10:22.705Z,16.70
2018-09-20T22:12:50.858Z,16.70
2018-09-20T22:15:31.200Z,16.60
2018-09-20T22:18:04.562Z,16.60
2018-09-20T22:20:37.933Z,16.60
2018-09-20T22:23:11.043Z,16.60
2018-09-20T22:25:39.374Z,16.60
2018-09-20T22:28:07.500Z,16.60
2018-09-20T22:30:41.835Z,16.60
2018-09-20T22:33:17.756Z,16.60
2018-09-20T22:35:46.011Z,16.60
2018-09-20T22:38:28.570Z,16.60
2018-09-20T22:40:56.705Z,16.60
2018-09-20T22:43:34.880Z,16.70
2018-09-20T22:46:05.024Z,17.00
2018-09-20T22:48:33.070Z,17.20
2018-09-20T22:51:14.334Z,17.40
2018-09-20T22:53:45.394Z,17.70
2018-09-20T22:56:13.494Z,18.00
2018-09-20T22:58:48.778Z,18.10
2018-09-20T23:01:18.964Z,18.30
2018-09-20T23:03:46.985Z,18.40
2018-09-20T23:06:21.427Z,18.50
2018-09-20T23:08:52.272Z,18.60
2018-09-20T23:11:20.317Z,18.70
2018-09-20T23:13:52.700Z,18.70
2018-09-20T23:16:20.983Z,18.80
2018-09-20T23:18:49.160Z,18.90
2018-09-20T23:21:17.219Z,18.90
2018-09-20T23:23:53.167Z,18.90
2018-09-20T23:26:21.261Z,19.00
2018-09-20T23:28:56.753Z,19.00
2018-09-20T23:31:31.932Z,19.00
2018-09-20T23:34:11.875Z,19.00
2018-09-20T23:36:39.946Z,19.00
2018-09-20T23:39:12.456Z,19.10
2018-09-20T23:41:45.588Z,19.20
2018-09-20T23:44:16.039Z,19.20
2018-09-20T23:46:44.333Z,19.20
2018-09-20T23:49:12.379Z,19.30
2018-09-20T23:51:44.766Z,19.30
2018-09-20T23:54:16.048Z,19.30
2018-09-20T23:56:44.414Z,19.40
2018-09-20T23:59:15.771Z,19.40
